createdAt,value
2022-09-03T00:02:33.252Z,100392.56
2022-09-03T00:05:10.924Z,100407.03
2022-09-03T00:07:57.722Z,100397.78
2022-09-03T00:10:32.980Z,100392.06
2022-09-03T00:13:04.796Z,100379.97
2022-09-03T00:15:34.479Z,100373.47
2022-09-03T00:18:07.206Z,100399.16
2022-09-03T00:20:42.498Z,100374.97
2022-09-03T00:23:17.114Z,100231.84
2022-09-03T00:25:50.671Z,100351.44
2022-09-03T00:28:21.553Z,100393.72
2022-09-03T00:30:57.099Z,100379.56
2022-09-03T00:33:33.009Z,100383.72
2022-09-03T00:36:02.361Z,100387.13
2022-09-03T00:38:30.286Z,100384.34
2022-09-03T00:41:07.919Z,100392.94
2022-09-03T00:43:58.574Z,100389.22
2022-09-03T00:46:41.913Z,100389.06
2022-09-03T00:49:23.673Z,100393.16
2022-09-03T00:52:06.987Z,100392.16
2022-09-03T00:54:36.500Z,100395.38
2022-09-03T00:57:18.167Z,100394.72
2022-09-03T01:00:00.839Z,100385.66
2022-09-03T01:02:57.816Z,100395.38
2022-09-03T01:06:03.398Z,100390.13
2022-09-03T01:08:52.343Z,100361.13
2022-09-03T01:11:33.345Z,100390.00
2022-09-03T01:14:06.409Z,100395.66
2022-09-03T01:16:44.950Z,100396.03
2022-09-03T01:19:39.875Z,100392.44
2022-09-03T01:22:31.584Z,100393.75
2022-09-03T01:25:04.740Z,100387.34
2022-09-03T01:27:50.322Z,100388.22
2022-09-03T01:30:24.195Z,100388.88
2022-09-03T01:33:04.194Z,100367.75
2022-09-03T01:35:47.659Z,100323.25
2022-09-03T01:38:26.740Z,100310.38
2022-09-03T01:41:49.242Z,100320.22
2022-09-03T01:44:40.315Z,100391.88
2022-09-03T01:47:21.909Z,100388.34
2022-09-03T01:49:59.406Z,100381.88
2022-09-03T01:52:52.272Z,100373.81
2022-09-03T01:55:31.849Z,100388.97
2022-09-03T01:58:11.865Z,100370.66
2022-09-03T02:00:42.768Z,100379.09
2022-09-03T02:03:12.223Z,100375.00
2022-09-03T02:05:39.172Z,100353.50
2022-09-03T02:08:08.861Z,100339.00
2022-09-03T02:10:45.397Z,100391.38
2022-09-03T02:13:23.001Z,100372.63
2022-09-03T02:15:52.712Z,100344.41
2022-09-03T02:18:26.873Z,100384.50
2022-09-03T02:20:54.410Z,100378.69
2022-09-03T02:23:27.818Z,100344.50
2022-09-03T02:26:01.314Z,100341.34
2022-09-03T02:28:32.501Z,100370.16
2022-09-03T02:30:59.032Z,100358.19
2022-09-03T02:33:26.221Z,100299.00
2022-09-03T02:35:53.391Z,100377.91
2022-09-03T02:38:26.112Z,100378.47
2022-09-03T02:40:56.026Z,100376.38
2022-09-03T02:43:30.942Z,100320.47
2022-09-03T02:46:02.067Z,100357.06
2022-09-03T02:48:28.554Z,100332.94
2022-09-03T02:50:54.982Z,100349.66
2022-09-03T02:53:21.620Z,100274.22
2022-09-03T02:55:48.140Z,100364.72
2022-09-03T02:58:14.586Z,100336.13
2022-09-03T03:00:41.031Z,100377.47
2022-09-03T03:03:07.540Z,100370.44
2022-09-03T03:05:47.206Z,100334.75
2022-09-03T03:08:15.351Z,100360.00
2022-09-03T03:10:45.088Z,100359.97
2022-09-03T03:13:12.563Z,100379.13
2022-09-03T03:15:39.229Z,100282.31
2022-09-03T03:18:07.475Z,100250.19
2022-09-03T03:20:34.369Z,100322.72
2022-09-03T03:23:05.523Z,100265.59
2022-09-03T03:25:37.018Z,100346.22
2022-09-03T03:28:05.069Z,100316.56
2022-09-03T03:30:32.467Z,100268.16
2022-09-03T03:32:58.999Z,100350.41
2022-09-03T03:35:25.710Z,100349.38
2022-09-03T03:37:52.370Z,100356.06
2022-09-03T03:40:20.179Z,100297.28
2022-09-03T03:42:46.736Z,100344.38
2022-09-03T03:45:13.205Z,100321.63
2022-09-03T03:47:39.731Z,100344.19
2022-09-03T03:50:06.789Z,100325.63
2022-09-03T03:52:33.238Z,100344.19
2022-09-03T03:54:59.727Z,100280.47
2022-09-03T03:57:29.486Z,100335.50
2022-09-03T03:59:55.983Z,100275.91
2022-09-03T04:02:22.466Z,100268.03
2022-09-03T04:04:48.980Z,100350.38
2022-09-03T04:07:15.384Z,100342.94
2022-09-03T04:09:41.792Z,100335.72
2022-09-03T04:12:08.736Z,100353.34
2022-09-03T04:14:35.405Z,100345.88
2022-09-03T04:17:03.122Z,100358.56
2022-09-03T04:19:30.189Z,100348.53
2022-09-03T04:21:56.829Z,100327.13
2022-09-03T04:24:23.880Z,100341.53
2022-09-03T04:26:50.500Z,100264.72
2022-09-03T04:29:18.293Z,100325.91
2022-09-03T04:32:05.934Z,100340.69
2022-09-03T04:34:32.679Z,100298.44
2022-09-03T04:36:59.196Z,100328.63
2022-09-03T04:39:26.209Z,100274.13
2022-09-03T04:41:52.920Z,100346.84
2022-09-03T04:44:19.448Z,100333.75
2022-09-03T04:46:47.789Z,100344.16
2022-09-03T04:49:16.544Z,100337.56
2022-09-03T04:51:43.904Z,100344.97
2022-09-03T04:54:11.123Z,100330.25
2022-09-03T04:56:39.520Z,100353.56
2022-09-03T04:59:08.838Z,100337.28
2022-09-03T05:01:37.559Z,100354.09
2022-09-03T05:04:05.102Z,100351.38
2022-09-03T05:06:33.711Z,100339.81
2022-09-03T05:09:00.961Z,100256.81
2022-09-03T05:11:29.127Z,100346.88
2022-09-03T05:13:58.604Z,100355.00
2022-09-03T05:16:28.164Z,100273.56
2022-09-03T05:18:56.655Z,100277.16
2022-09-03T05:21:24.459Z,100372.47
2022-09-03T05:23:51.953Z,100250.09
2022-09-03T05:26:26.668Z,100297.72
2022-09-03T05:28:57.505Z,100354.63
2022-09-03T05:31:26.668Z,100366.13
2022-09-03T05:33:58.328Z,100372.09
2022-09-03T05:36:26.642Z,100369.53
2022-09-03T05:38:56.467Z,100301.78
2022-09-03T05:41:26.571Z,100297.22
2022-09-03T05:43:59.028Z,100278.31
2022-09-03T05:46:31.472Z,100273.97
2022-09-03T05:49:02.367Z,100355.00
2022-09-03T05:51:30.211Z,100341.88
2022-09-03T05:53:58.031Z,100358.00
2022-09-03T05:56:27.061Z,100372.16
2022-09-03T05:58:56.390Z,100375.16
2022-09-03T06:01:25.170Z,100371.53
2022-09-03T06:04:01.037Z,100351.31
2022-09-03T06:06:29.025Z,100354.09
2022-09-03T06:08:59.559Z,100322.31
2022-09-03T06:11:31.489Z,100299.94
2022-09-03T06:14:02.686Z,100370.59
2022-09-03T06:16:32.150Z,100310.06
2022-09-03T06:19:02.485Z,100239.06
2022-09-03T06:21:29.597Z,100356.44
2022-09-03T06:23:59.533Z,100272.19
2022-09-03T06:26:28.536Z,100346.94
2022-09-03T06:28:56.196Z,100363.78
2022-09-03T06:31:23.608Z,100369.03
2022-09-03T06:33:50.129Z,100366.47
2022-09-03T06:36:18.934Z,100332.41
2022-09-03T06:38:46.480Z,100371.56
2022-09-03T06:41:21.390Z,100373.69
2022-09-03T06:43:49.128Z,100364.34
2022-09-03T06:46:18.036Z,100372.31
2022-09-03T06:48:45.624Z,100298.44
2022-09-03T06:51:33.181Z,100300.69
2022-09-03T06:54:08.247Z,100373.19
2022-09-03T06:56:39.822Z,100175.69
2022-09-03T06:59:12.325Z,100374.97
2022-09-03T07:01:41.044Z,100306.22
2022-09-03T07:04:12.757Z,100366.66
2022-09-03T07:06:41.985Z,100379.25
2022-09-03T07:09:10.119Z,100351.56
2022-09-03T07:11:37.451Z,100363.03
2022-09-03T07:14:04.954Z,100375.44
2022-09-03T07:16:35.727Z,100387.47
2022-09-03T07:19:03.606Z,100365.41
2022-09-03T07:21:33.940Z,100337.28
2022-09-03T07:24:00.848Z,100390.13
2022-09-03T07:26:32.309Z,100381.81
2022-09-03T07:29:00.737Z,100353.66
2022-09-03T07:31:31.161Z,100348.13
2022-09-03T07:33:59.571Z,100386.06
2022-09-03T07:36:28.732Z,100366.56
2022-09-03T07:38:59.610Z,100349.13
2022-09-03T07:41:28.916Z,100373.34
2022-09-03T07:43:57.013Z,100342.38
2022-09-03T07:46:25.687Z,100378.56
2022-09-03T07:49:04.450Z,100380.06
2022-09-03T07:51:33.408Z,100379.31
2022-09-03T07:54:02.641Z,100385.78
2022-09-03T07:56:32.434Z,100361.19
2022-09-03T07:58:59.334Z,100345.50
2022-09-03T08:01:28.668Z,100380.00
2022-09-03T08:03:55.779Z,100379.59
2022-09-03T08:06:24.462Z,100287.59
2022-09-03T08:09:04.593Z,100372.19
2022-09-03T08:11:33.405Z,100277.06
2022-09-03T08:14:03.163Z,100362.69
2022-09-03T08:16:31.878Z,100364.84
2022-09-03T08:18:59.348Z,100398.63
2022-09-03T08:21:27.130Z,100402.66
2022-09-03T08:24:02.764Z,100232.88
2022-09-03T08:26:32.095Z,100302.25
2022-09-03T08:28:59.039Z,100407.09
2022-09-03T08:31:26.534Z,100409.66
2022-09-03T08:33:54.981Z,100361.53
2022-09-03T08:36:25.291Z,100314.91
2022-09-03T08:38:55.149Z,100361.13
2022-09-03T08:42:08.296Z,100405.72
2022-09-03T08:44:46.883Z,100407.41
2022-09-03T08:47:28.442Z,100397.50
2022-09-03T08:50:00.821Z,100389.03
2022-09-03T08:52:49.017Z,100388.94
2022-09-03T08:55:36.187Z,100395.72
2022-09-03T08:58:06.788Z,100388.34
2022-09-03T09:00:49.656Z,100407.75
2022-09-03T09:03:42.358Z,100397.06
2022-09-03T09:06:21.288Z,100394.63
2022-09-03T09:09:10.883Z,100407.13
2022-09-03T09:12:11.166Z,100390.34
2022-09-03T09:14:49.742Z,100398.97
2022-09-03T09:17:53.430Z,100405.19
2022-09-03T09:20:41.695Z,100360.09
2022-09-03T09:23:15.973Z,100370.28
2022-09-03T09:25:48.854Z,100405.22
2022-09-03T09:28:20.158Z,100402.50
2022-09-03T13:14:12.463Z,100339.78
2022-09-03T13:16:44.855Z,100358.66
2022-09-03T13:19:26.249Z,100360.06
2022-09-03T13:22:03.897Z,100356.03
2022-09-03T13:24:59.213Z,100365.13
2022-09-03T13:27:33.388Z,100354.31
2022-09-03T13:30:03.753Z,100356.06
2022-09-03T13:32:44.319Z,100351.28
2022-09-03T13:35:27.482Z,100319.53
2022-09-03T13:38:24.072Z,100353.69
2022-09-03T13:41:19.584Z,100353.50
2022-09-03T13:44:12.885Z,100278.28
2022-09-03T13:46:56.166Z,100314.41
2022-09-03T13:49:53.621Z,100335.00
2022-09-03T13:52:31.542Z,100295.00
2022-09-03T13:55:18.992Z,100278.25
2022-09-03T13:58:24.871Z,100346.19
2022-09-03T14:01:03.305Z,100346.22
2022-09-03T14:03:48.581Z,100347.34
2022-09-03T14:06:42.038Z,100294.31
2022-09-03T14:09:23.844Z,100349.19
2022-09-03T14:12:19.577Z,100328.88
2022-09-03T14:15:00.886Z,100296.44
2022-09-03T14:17:36.858Z,100350.19
2022-09-03T14:20:31.282Z,100341.63
2022-09-03T14:23:28.705Z,100348.03
2022-09-03T14:26:03.789Z,100346.69
2022-09-03T14:28:49.535Z,100336.09
2022-09-03T14:31:43.926Z,100356.50
2022-09-03T14:34:32.333Z,100351.28
2022-09-03T14:37:23.894Z,100335.56
2022-09-03T14:40:05.010Z,100351.28
2022-09-03T14:42:47.713Z,100350.59
2022-09-03T14:45:27.320Z,100342.53
2022-09-03T14:48:12.992Z,100348.56
2022-09-03T14:50:58.721Z,100334.00
2022-09-03T14:53:50.469Z,100340.84
2022-09-03T14:56:58.993Z,100341.28
2022-09-03T14:59:56.340Z,100347.06
2022-09-03T15:02:54.143Z,100326.56
2022-09-03T15:05:48.561Z,100358.72
2022-09-03T15:08:50.096Z,100347.56
2022-09-03T15:11:27.658Z,100347.41
2022-09-03T15:14:09.418Z,100342.81
2022-09-03T15:16:53.903Z,100347.88
2022-09-03T15:19:26.193Z,100352.63
2022-09-03T15:22:09.632Z,100348.22
2022-09-03T15:24:41.765Z,100352.97
2022-09-03T15:27:40.381Z,100318.50
2022-09-03T15:30:10.850Z,100349.94
2022-09-03T15:32:57.782Z,100305.66
2022-09-03T15:35:34.586Z,100347.75
2022-09-03T15:38:10.876Z,100320.19
2022-09-03T15:40:50.395Z,100267.66
2022-09-03T15:43:22.698Z,100268.69
2022-09-03T15:45:49.232Z,100352.97
2022-09-03T15:48:39.160Z,100349.16
2022-09-03T15:51:16.845Z,100251.53
2022-09-03T15:53:55.097Z,100345.06
2022-09-03T15:56:36.911Z,100325.25
2022-09-03T15:59:19.774Z,100352.25
2022-09-03T16:01:54.461Z,100345.34
2022-09-03T16:04:59.827Z,100228.81
2022-09-03T16:07:39.665Z,100312.09
2022-09-03T16:10:30.492Z,100245.81
2022-09-03T16:13:07.811Z,100352.88
2022-09-03T16:15:41.584Z,100351.16
2022-09-03T16:18:21.443Z,100264.34
2022-09-03T16:21:05.265Z,100353.91
2022-09-03T16:23:36.101Z,100354.81
2022-09-03T16:26:13.426Z,100251.09
2022-09-03T16:28:59.844Z,100334.88
2022-09-03T16:31:51.063Z,100362.78
2022-09-03T16:34:54.076Z,100355.31
2022-09-03T16:37:40.149Z,100342.38
2022-09-03T16:40:33.427Z,100360.47
2022-09-03T16:43:44.654Z,100302.50
2022-09-03T16:46:25.895Z,100365.25
2022-09-03T16:49:38.329Z,100370.56
2022-09-03T16:52:15.846Z,100367.66
2022-09-03T16:55:21.992Z,100364.75
2022-09-03T16:58:10.246Z,100344.34
2022-09-03T17:01:10.864Z,100368.34
2022-09-03T17:03:49.695Z,100333.47
2022-09-03T17:06:55.077Z,100376.63
2022-09-03T17:09:59.277Z,100381.56
2022-09-03T17:12:48.775Z,100378.25
2022-09-03T17:15:51.854Z,100371.72
2022-09-03T17:18:55.465Z,100260.50
2022-09-03T17:21:46.612Z,100387.47
2022-09-03T17:25:29.237Z,100384.34
2022-09-03T17:29:19.471Z,100367.09
2022-09-03T17:31:55.088Z,100354.00
2022-09-03T17:34:49.460Z,100389.75
2022-09-03T17:41:24.156Z,100410.94
2022-09-03T17:56:28.778Z,100419.72
2022-09-03T18:02:40.457Z,100427.88
2022-09-03T18:08:25.167Z,100429.41
2022-09-03T18:11:02.244Z,100407.44
2022-09-03T18:13:54.733Z,100440.94
2022-09-03T18:16:28.115Z,100441.91
2022-09-03T18:19:29.232Z,100425.16
2022-09-03T18:22:17.906Z,100421.25
2022-09-03T18:25:14.391Z,100438.00
2022-09-03T18:28:06.637Z,100449.06
2022-09-03T18:30:52.803Z,100436.28
2022-09-03T18:33:43.549Z,100438.31
2022-09-03T18:36:29.978Z,100439.16
2022-09-03T18:39:33.394Z,100455.47
2022-09-03T18:42:32.607Z,100465.22
2022-09-03T18:45:56.371Z,100468.91
2022-09-03T18:48:45.092Z,100438.06
2022-09-03T18:51:45.439Z,100473.44
2022-09-03T18:55:06.768Z,100473.78
2022-09-03T18:58:26.843Z,100485.06
2022-09-03T19:01:32.996Z,100474.88
2022-09-03T19:04:55.138Z,100492.41
2022-09-03T19:08:03.807Z,100465.84
2022-09-03T19:11:13.490Z,100493.88
2022-09-03T19:13:59.933Z,100467.81
2022-09-03T19:16:48.138Z,100510.53
2022-09-03T19:19:52.543Z,100515.38
2022-09-03T19:22:56.717Z,100519.03
2022-09-03T19:25:43.076Z,100518.75
2022-09-03T19:29:03.836Z,100510.72
2022-09-03T19:32:04.210Z,100507.16
2022-09-03T19:34:55.138Z,100523.59
2022-09-03T19:37:53.547Z,100482.22
2022-09-03T19:40:59.808Z,100533.72
2022-09-03T19:44:00.153Z,100509.66
2022-09-03T19:46:51.058Z,100538.81
2022-09-03T19:49:56.438Z,100517.28
2022-09-03T19:53:07.687Z,100537.50
2022-09-03T19:55:57.605Z,100523.78
2022-09-03T19:58:46.577Z,100547.28
2022-09-03T20:01:32.223Z,100527.16
2022-09-03T20:04:22.392Z,100554.88
2022-09-03T20:07:08.278Z,100522.63
2022-09-03T20:10:00.516Z,100563.75
2022-09-03T20:12:34.129Z,100564.44
2022-09-03T20:15:04.432Z,100559.53
2022-09-03T20:18:20.843Z,100549.88
2022-09-03T20:20:47.175Z,100568.53
2022-09-03T20:23:21.557Z,100541.59
2022-09-03T20:26:12.389Z,100574.72
2022-09-03T20:28:53.603Z,100568.75
2022-09-03T20:31:27.223Z,100576.41
2022-09-03T20:34:14.556Z,100587.88
2022-09-03T20:36:54.376Z,100565.69
2022-09-03T20:39:55.222Z,100543.25
2022-09-03T20:42:44.455Z,100568.53
2022-09-03T20:45:24.478Z,100582.41
2022-09-03T20:48:03.531Z,100494.34
2022-09-03T20:50:45.195Z,100585.03
2022-09-03T20:53:43.432Z,100590.75
2022-09-03T20:56:31.890Z,100598.00
2022-09-03T20:59:09.210Z,100600.38
2022-09-03T21:01:55.766Z,100538.22
2022-09-03T21:04:51.478Z,100595.06
2022-09-03T21:07:37.430Z,100541.38
2022-09-03T21:10:34.009Z,100512.06
2022-09-03T21:13:13.239Z,100568.25
2022-09-03T21:15:57.915Z,100615.00
2022-09-03T21:18:29.815Z,100618.50
2022-09-03T21:21:26.265Z,100486.88
2022-09-03T21:24:04.980Z,100475.53
2022-09-03T21:26:39.897Z,100521.50
2022-09-03T21:29:21.537Z,100568.94
2022-09-03T21:31:53.750Z,100609.59
2022-09-03T21:35:13.405Z,100623.84
2022-09-03T21:37:44.920Z,100600.06
2022-09-03T21:40:13.302Z,100594.94
2022-09-03T21:43:10.805Z,100610.09
2022-09-03T21:45:40.817Z,100629.66
2022-09-03T21:48:21.187Z,100577.63
2022-09-03T21:51:31.248Z,100621.69
2022-09-03T21:54:04.862Z,100640.47
2022-09-03T21:57:03.168Z,100615.09
2022-09-03T21:59:52.899Z,100634.59
2022-09-03T22:02:24.497Z,100564.47
2022-09-03T22:04:52.370Z,100617.75
2022-09-03T22:07:46.693Z,100634.09
2022-09-03T22:10:46.994Z,100636.50
2022-09-03T22:13:17.117Z,100593.03
2022-09-03T22:15:51.255Z,100628.47
2022-09-03T22:18:23.817Z,100640.06
2022-09-03T22:21:36.853Z,100645.75
2022-09-03T22:24:14.604Z,100640.50
2022-09-03T22:27:36.292Z,100621.38
2022-09-03T22:30:13.173Z,100646.13
2022-09-03T22:32:48.311Z,100646.22
2022-09-03T22:35:14.592Z,100656.94
2022-09-03T22:38:02.787Z,100646.91
2022-09-03T22:40:37.505Z,100561.53
2022-09-03T22:43:39.473Z,100647.78
2022-09-03T22:46:11.190Z,100640.72
2022-09-03T22:48:43.389Z,100648.53
2022-09-03T22:51:09.808Z,100642.66
2022-09-03T22:53:45.410Z,100652.53
2022-09-03T22:56:22.284Z,100630.63
2022-09-03T22:58:56.974Z,100616.19
2022-09-03T23:01:34.523Z,100565.56
2022-09-03T23:04:16.335Z,100645.28
2022-09-03T23:06:57.398Z,100659.13
2022-09-03T23:09:30.164Z,100654.88
2022-09-03T23:12:10.926Z,100577.25
2022-09-03T23:14:48.604Z,100660.25
2022-09-03T23:17:25.107Z,100650.66
2022-09-03T23:22:37.190Z,100631.81
2022-09-03T23:25:10.572Z,100656.19
2022-09-03T23:28:10.935Z,100669.97
2022-09-03T23:30:37.352Z,100653.41
2022-09-03T23:33:04.131Z,100602.66
2022-09-03T23:35:38.264Z,100665.19
2022-09-03T23:38:27.014Z,100654.59
2022-09-03T23:40:57.782Z,100651.81
2022-09-03T23:44:01.513Z,100674.84
2022-09-03T23:46:34.482Z,100660.81
2022-09-03T23:49:09.619Z,100687.16
2022-09-03T23:51:53.502Z,100676.50
2022-09-03T23:54:35.582Z,100668.59
2022-09-03T23:57:14.431Z,100612.13
